Time;durP1;ratioP1;P1;durP2;ratioP2;P2;SDS_P1;SDS_P2;PMS_P1;PMS_P2;Temp;Humidity;BMP_temperature;BMP_pressure;BME280_temperature;BME280_humidity;BME280_pressure;Samples;Min_cycle;Max_cycle;Signal;HPM_P1;HPM_P2
2023/04/07 00:01:44;;;;;;;;;;;6.90;99.90;;;;;;4933958;29;20452;-74
2023/04/07 00:04:11;;;;;;;;;;;6.90;99.90;;;;;;4932414;29;19927;-74
2023/04/07 00:06:37;;;;;;;;;;;6.90;99.90;;;;;;4931984;29;19927;-74
2023/04/07 00:09:04;;;;;;;;;;;6.90;99.90;;;;;;4928493;29;20394;-74
2023/04/07 00:11:31;;;;;;;;;;;6.90;99.90;;;;;;4928138;29;20419;-74
2023/04/07 00:13:58;;;;;;;;;;;6.90;99.90;;;;;;4934296;29;19937;-74
2023/04/07 00:16:25;;;;;;;;;;;6.90;99.90;;;;;;4930112;29;19945;-74
2023/04/07 00:18:53;;;;;;;;;;;6.90;99.90;;;;;;4931945;29;20388;-74
2023/04/07 00:21:20;;;;;;;;;;;6.90;99.90;;;;;;4932179;29;19933;-76
2023/04/07 00:23:47;;;;;;;;;;;6.90;99.90;;;;;;4932866;29;19986;-75
2023/04/07 00:26:14;;;;;;;;;;;6.90;99.90;;;;;;4929413;29;20112;-74
2023/04/07 00:28:43;;;;;;;;;;;6.90;99.90;;;;;;4926883;29;19934;-74
2023/04/07 00:31:10;;;;;;;;;;;6.90;99.90;;;;;;4929950;29;19945;-75
2023/04/07 00:33:37;;;;;;;;;;;6.90;99.90;;;;;;4935718;29;20544;-74
2023/04/07 00:36:06;;;;;;;;;;;6.90;99.90;;;;;;4912804;29;19939;-75
2023/04/07 00:38:32;;;;;;;;;;;6.90;99.90;;;;;;4939443;28;19974;-75
2023/04/07 00:41:00;;;;;;;;;;;6.80;99.90;;;;;;4919634;29;19930;-74
2023/04/07 00:43:27;;;;;;;;;;;6.80;99.90;;;;;;4920663;29;19934;-74
2023/04/07 00:45:53;;;;;;;;;;;6.80;99.90;;;;;;4926717;29;19927;-74
2023/04/07 00:48:21;;;;;;;;;;;6.80;99.90;;;;;;4922628;29;19953;-75
2023/04/07 00:50:47;;;;;;;;;;;6.80;99.90;;;;;;4934909;29;20409;-74
2023/04/07 00:53:16;;;;;;;;;;;6.80;99.90;;;;;;4937634;29;19931;-75
2023/04/07 00:55:43;;;;;;;;;;;6.80;99.90;;;;;;4929351;29;19927;-75
2023/04/07 00:58:10;;;;;;;;;;;6.80;99.90;;;;;;4934798;29;20014;-74
2023/04/07 01:00:41;;;;;;;;;;;6.80;99.90;;;;;;4939826;29;19927;-75
2023/04/07 01:03:10;;;;;;;;;;;6.80;99.90;;;;;;4935424;29;19985;-75
2023/04/07 01:05:42;;;;;;;;;;;6.80;99.90;;;;;;4932769;29;20338;-74
2023/04/07 01:08:13;;;;;;;;;;;6.80;99.90;;;;;;4931733;29;19926;-75
2023/04/07 01:10:45;;;;;;;;;;;6.80;99.90;;;;;;4933698;29;19927;-75
2023/04/07 01:13:22;;;;;;;;;;;6.80;99.90;;;;;;4931431;29;19935;-74
2023/04/07 01:15:51;;;;;;;;;;;6.70;99.90;;;;;;4926350;29;19983;-74
2023/04/07 01:18:22;;;;;;;;;;;6.80;99.90;;;;;;4932213;29;19934;-75
2023/04/07 01:20:50;;;;;;;;;;;6.70;99.90;;;;;;4938038;29;21411;-74
2023/04/07 01:23:21;;;;;;;;;;;6.70;99.90;;;;;;4928676;29;19937;-75
2023/04/07 01:26:04;;;;;;;;;;;6.70;99.90;;;;;;4943094;29;19938;-77
2023/04/07 01:28:41;;;;;;;;;;;6.70;99.90;;;;;;4932389;29;20354;-74
2023/04/07 01:31:10;;;;;;;;;;;6.70;99.90;;;;;;4924873;29;19998;-75
2023/04/07 01:33:37;;;;;;;;;;;6.70;99.90;;;;;;4925209;29;20444;-74
2023/04/07 01:36:05;;;;;;;;;;;6.70;99.90;;;;;;4930919;28;20002;-75
2023/04/07 01:38:33;;;;;;;;;;;6.70;99.90;;;;;;4931518;29;19966;-74
2023/04/07 01:41:00;;;;;;;;;;;6.70;99.90;;;;;;4910711;29;20429;-74
2023/04/07 01:43:27;;;;;;;;;;;6.70;99.90;;;;;;4936767;29;19966;-74
2023/04/07 01:45:54;;;;;;;;;;;6.70;99.90;;;;;;4939262;29;19985;-75
2023/04/07 01:48:24;;;;;;;;;;;6.70;99.90;;;;;;4930620;29;19994;-75
2023/04/07 01:50:51;;;;;;;;;;;6.70;99.90;;;;;;4936228;29;20372;-75
2023/04/07 01:53:19;;;;;;;;;;;6.60;99.90;;;;;;4935122;29;19934;-74
2023/04/07 01:55:46;;;;;;;;;;;6.60;99.90;;;;;;4936156;29;19978;-75
2023/04/07 01:58:13;;;;;;;;;;;6.60;99.90;;;;;;4931700;29;19931;-74
2023/04/07 02:00:42;;;;;;;;;;;6.60;99.90;;;;;;4934996;29;19934;-75
2023/04/07 02:03:19;;;;;;;;;;;6.60;99.90;;;;;;4927728;29;19931;-74
2023/04/07 02:05:50;;;;;;;;;;;6.60;99.90;;;;;;4938928;29;19934;-75
2023/04/07 02:08:17;;;;;;;;;;;6.60;99.90;;;;;;4936987;29;20013;-74
2023/04/07 02:10:47;;;;;;;;;;;6.60;99.90;;;;;;4938132;29;19933;-74
2023/04/07 02:13:16;;;;;;;;;;;6.60;99.90;;;;;;4939685;29;20025;-74
2023/04/07 02:15:44;;;;;;;;;;;6.60;99.90;;;;;;4920872;29;19927;-74
2023/04/07 02:18:12;;;;;;;;;;;6.60;99.90;;;;;;4930264;29;19974;-74
2023/04/07 02:20:39;;;;;;;;;;;6.60;99.90;;;;;;4933848;29;19966;-75
2023/04/07 02:23:09;;;;;;;;;;;6.60;99.90;;;;;;4924789;29;19966;-74
2023/04/07 02:25:37;;;;;;;;;;;6.60;99.90;;;;;;4929261;29;19935;-74
2023/04/07 02:28:05;;;;;;;;;;;6.60;99.90;;;;;;4934519;29;20458;-75
2023/04/07 02:30:32;;;;;;;;;;;6.60;99.90;;;;;;4942516;29;19982;-74
2023/04/07 02:32:58;;;;;;;;;;;6.50;99.90;;;;;;4935178;29;19927;-74
2023/04/07 02:35:25;;;;;;;;;;;6.50;99.90;;;;;;4934681;29;19983;-74
2023/04/07 02:37:52;;;;;;;;;;;6.50;99.90;;;;;;4937849;29;20014;-75
2023/04/07 02:40:20;;;;;;;;;;;6.50;99.90;;;;;;4931467;29;19927;-75
2023/04/07 02:42:47;;;;;;;;;;;6.50;99.90;;;;;;4911643;29;19927;-75
2023/04/07 02:45:14;;;;;;;;;;;6.50;99.90;;;;;;4924633;23;19958;-90
2023/04/07 02:47:41;;;;;;;;;;;6.50;99.90;;;;;;4936621;28;19935;-92
2023/04/07 02:50:08;;;;;;;;;;;6.50;99.90;;;;;;4922340;29;19935;-90
2023/04/07 02:52:36;;;;;;;;;;;6.50;99.90;;;;;;4922119;29;19935;-90
2023/04/07 02:55:07;;;;;;;;;;;6.50;99.90;;;;;;4935840;29;19926;-91
2023/04/07 02:57:36;;;;;;;;;;;6.50;99.90;;;;;;4953584;28;19958;-90
2023/04/07 03:00:07;;;;;;;;;;;6.50;99.90;;;;;;4940445;29;19930;-91
2023/04/07 03:02:51;;;;;;;;;;;6.50;99.90;;;;;;4934265;29;20456;-89
2023/04/07 03:05:18;;;;;;;;;;;6.50;99.90;;;;;;4956325;28;20401;-88
2023/04/07 03:07:45;;;;;;;;;;;6.50;99.90;;;;;;4955371;28;19933;-91
2023/04/07 03:10:12;;;;;;;;;;;6.50;99.90;;;;;;4947137;28;19934;-89
2023/04/07 03:12:40;;;;;;;;;;;6.50;99.90;;;;;;4954532;28;20078;-89
2023/04/07 03:15:08;;;;;;;;;;;6.40;99.90;;;;;;4950828;28;19927;-91
2023/04/07 03:17:36;;;;;;;;;;;6.40;99.90;;;;;;4935798;29;19931;-89
2023/04/07 03:20:03;;;;;;;;;;;6.40;99.90;;;;;;4935716;28;20015;-92
2023/04/07 03:22:32;;;;;;;;;;;6.50;99.90;;;;;;4949975;28;19935;-89
2023/04/07 03:24:59;;;;;;;;;;;6.40;99.90;;;;;;4948819;28;20382;-92
2023/04/07 03:27:27;;;;;;;;;;;6.40;99.90;;;;;;4956053;28;20034;-90
2023/04/07 03:29:55;;;;;;;;;;;6.40;99.90;;;;;;4935646;29;20576;-90
2023/04/07 03:32:25;;;;;;;;;;;6.40;99.90;;;;;;4953674;28;19926;-88
2023/04/07 03:34:52;;;;;;;;;;;6.40;99.90;;;;;;4942293;28;19927;-90
2023/04/07 03:37:19;;;;;;;;;;;6.40;99.90;;;;;;4938990;29;19931;-89
2023/04/07 03:39:46;;;;;;;;;;;6.40;99.90;;;;;;4946632;28;20445;-89
2023/04/07 03:42:24;;;;;;;;;;;6.40;99.90;;;;;;4932616;29;20061;-90
2023/04/07 03:44:58;;;;;;;;;;;6.40;99.90;;;;;;4930828;29;19930;-90
2023/04/07 03:47:25;;;;;;;;;;;6.40;99.90;;;;;;4935260;29;19927;-91
2023/04/07 03:49:57;;;;;;;;;;;6.40;99.90;;;;;;4949392;28;20345;-89
2023/04/07 03:52:23;;;;;;;;;;;6.40;99.90;;;;;;4949471;28;19965;-89
2023/04/07 03:54:54;;;;;;;;;;;6.40;99.90;;;;;;4943841;28;19935;-92
2023/04/07 03:57:26;;;;;;;;;;;6.40;99.90;;;;;;4942299;28;20043;-88
2023/04/07 03:59:54;;;;;;;;;;;6.30;99.90;;;;;;4950005;28;19927;-90
2023/04/07 04:02:22;;;;;;;;;;;6.30;99.90;;;;;;4936790;28;19930;-90
2023/04/07 04:04:52;;;;;;;;;;;6.40;99.90;;;;;;4955314;28;19949;-92
2023/04/07 04:07:22;;;;;;;;;;;6.40;99.90;;;;;;4963221;28;20386;-89
2023/04/07 04:09:51;;;;;;;;;;;6.30;99.90;;;;;;4930925;29;20364;-89
2023/04/07 04:12:18;;;;;;;;;;;6.30;99.90;;;;;;4943375;29;19970;-91
2023/04/07 04:14:57;;;;;;;;;;;6.30;99.90;;;;;;4927287;29;20154;-89
2023/04/07 04:17:26;;;;;;;;;;;6.30;99.90;;;;;;4943955;29;20321;-89
2023/04/07 04:19:53;;;;;;;;;;;6.30;99.90;;;;;;4942995;29;19937;-94
2023/04/07 04:22:30;;;;;;;;;;;6.30;99.90;;;;;;4977083;28;19915;-92
2023/04/07 04:24:58;;;;;;;;;;;6.30;99.90;;;;;;4971312;28;19935;-89
2023/04/07 04:27:27;;;;;;;;;;;6.30;99.90;;;;;;4931982;29;20424;-92
2023/04/07 04:30:02;;;;;;;;;;;6.30;99.90;;;;;;4927449;29;20478;-92
2023/04/07 04:32:38;;;;;;;;;;;6.30;99.90;;;;;;4926673;29;20017;-91
2023/04/07 04:35:06;;;;;;;;;;;6.30;99.90;;;;;;4946296;28;19933;-89
2023/04/07 04:37:39;;;;;;;;;;;6.30;99.90;;;;;;4952508;28;19926;-89
2023/04/07 04:40:10;;;;;;;;;;;6.30;99.90;;;;;;4943834;28;19970;-90
2023/04/07 04:42:38;;;;;;;;;;;6.30;99.90;;;;;;4949417;28;19927;-89
2023/04/07 04:45:07;;;;;;;;;;;6.30;99.90;;;;;;4949647;28;19942;-90
2023/04/07 04:47:34;;;;;;;;;;;6.20;99.90;;;;;;4932113;29;19933;-89
2023/04/07 04:50:06;;;;;;;;;;;6.20;99.90;;;;;;4940046;29;19927;-89
2023/04/07 04:52:34;;;;;;;;;;;6.20;99.90;;;;;;4938994;28;20350;-89
2023/04/07 04:55:01;;;;;;;;;;;6.30;99.90;;;;;;4952956;28;20394;-88
2023/04/07 04:57:29;;;;;;;;;;;6.20;99.90;;;;;;4931132;29;19934;-89
2023/04/07 04:59:58;;;;;;;;;;;6.20;99.90;;;;;;4927550;29;20014;-91
2023/04/07 05:02:26;;;;;;;;;;;6.20;99.90;;;;;;4934744;28;19927;-93
2023/04/07 05:04:53;;;;;;;;;;;6.20;99.90;;;;;;4931739;29;19982;-88
2023/04/07 05:07:29;;;;;;;;;;;6.20;99.90;;;;;;4939536;29;19927;-89
2023/04/07 05:09:57;;;;;;;;;;;6.20;99.90;;;;;;4957403;28;19927;-90
2023/04/07 05:12:24;;;;;;;;;;;6.20;99.90;;;;;;4953369;28;19934;-91
2023/04/07 05:14:57;;;;;;;;;;;6.20;99.90;;;;;;4958842;28;19930;-90
2023/04/07 05:17:24;;;;;;;;;;;6.20;99.90;;;;;;4958949;28;20002;-88
2023/04/07 05:19:51;;;;;;;;;;;6.20;99.90;;;;;;4941188;29;19927;-89
2023/04/07 05:22:31;;;;;;;;;;;6.20;99.90;;;;;;4933502;29;20362;-89
2023/04/07 05:24:58;;;;;;;;;;;6.20;99.90;;;;;;4948634;28;19933;-92
2023/04/07 05:27:26;;;;;;;;;;;6.20;99.90;;;;;;4945355;28;19954;-89
2023/04/07 05:29:55;;;;;;;;;;;6.20;99.90;;;;;;4949485;28;20251;-88
2023/04/07 05:32:28;;;;;;;;;;;6.20;99.90;;;;;;4939250;28;19934;-90
2023/04/07 05:34:55;;;;;;;;;;;6.20;99.90;;;;;;4953803;28;19930;-90
2023/04/07 05:37:26;;;;;;;;;;;6.20;99.90;;;;;;4924903;29;20858;-90
2023/04/07 05:39:55;;;;;;;;;;;6.10;99.90;;;;;;4942773;28;19986;-91
2023/04/07 05:42:23;;;;;;;;;;;6.20;99.90;;;;;;4950329;28;19931;-89
2023/04/07 05:44:53;;;;;;;;;;;6.20;99.90;;;;;;4935950;29;19998;-89
2023/04/07 05:47:23;;;;;;;;;;;6.10;99.90;;;;;;4938607;29;19934;-93
2023/04/07 05:49:50;;;;;;;;;;;6.20;99.90;;;;;;4951329;28;19927;-89
2023/04/07 05:52:17;;;;;;;;;;;6.10;99.90;;;;;;4935266;29;19927;-89
2023/04/07 05:54:50;;;;;;;;;;;6.10;99.90;;;;;;4956634;28;19931;-90
2023/04/07 05:57:19;;;;;;;;;;;6.10;99.90;;;;;;4935182;29;19926;-90
2023/04/07 05:59:47;;;;;;;;;;;6.10;99.90;;;;;;4948743;28;20304;-90
2023/04/07 06:02:14;;;;;;;;;;;6.10;99.90;;;;;;4943946;28;20394;-89
2023/04/07 06:04:43;;;;;;;;;;;6.10;99.90;;;;;;4940481;29;19933;-89
2023/04/07 06:07:15;;;;;;;;;;;6.10;99.90;;;;;;4944104;28;19934;-89
2023/04/07 06:09:43;;;;;;;;;;;6.10;99.90;;;;;;4944781;28;19975;-88
2023/04/07 06:12:11;;;;;;;;;;;6.10;99.90;;;;;;4946781;28;19966;-92
2023/04/07 06:14:43;;;;;;;;;;;6.10;99.90;;;;;;4939094;29;19926;-93
2023/04/07 06:17:10;;;;;;;;;;;6.10;99.90;;;;;;4934145;29;20043;-90
2023/04/07 06:19:36;;;;;;;;;;;6.10;99.90;;;;;;4941352;29;19962;-92
2023/04/07 06:22:03;;;;;;;;;;;6.10;99.90;;;;;;4949211;28;19974;-91
2023/04/07 06:24:31;;;;;;;;;;;6.10;99.90;;;;;;4948712;28;19926;-90
2023/04/07 06:26:58;;;;;;;;;;;6.10;99.90;;;;;;4925928;29;20015;-90
2023/04/07 06:29:25;;;;;;;;;;;6.10;99.90;;;;;;4934819;28;19954;-89
2023/04/07 06:31:57;;;;;;;;;;;6.10;99.90;;;;;;4953080;28;19930;-90
2023/04/07 06:34:23;;;;;;;;;;;6.10;99.90;;;;;;4951973;28;19926;-89
2023/04/07 06:36:50;;;;;;;;;;;6.10;99.90;;;;;;4940129;28;20342;-91
2023/04/07 06:39:17;;;;;;;;;;;6.10;99.90;;;;;;4938390;29;19926;-89
2023/04/07 06:41:45;;;;;;;;;;;6.00;99.90;;;;;;4948484;28;19927;-92
2023/04/07 06:44:12;;;;;;;;;;;6.10;99.90;;;;;;4943435;29;19938;-90
2023/04/07 06:46:40;;;;;;;;;;;6.10;99.90;;;;;;4938594;29;19954;-90
2023/04/07 06:49:08;;;;;;;;;;;6.10;99.90;;;;;;4950054;28;19933;-90
2023/04/07 06:51:35;;;;;;;;;;;6.10;99.90;;;;;;4937093;28;20017;-90
2023/04/07 06:54:03;;;;;;;;;;;6.10;99.90;;;;;;4943009;29;19935;-89
2023/04/07 06:56:30;;;;;;;;;;;6.10;99.90;;;;;;4936197;29;20402;-89
2023/04/07 06:58:56;;;;;;;;;;;6.10;99.90;;;;;;4943984;29;20022;-89
2023/04/07 07:01:23;;;;;;;;;;;6.10;99.90;;;;;;4937125;28;19930;-90
2023/04/07 07:03:50;;;;;;;;;;;6.10;99.90;;;;;;4952157;28;20425;-91
2023/04/07 07:06:18;;;;;;;;;;;6.10;99.90;;;;;;4944169;29;19931;-91
2023/04/07 07:08:45;;;;;;;;;;;6.10;99.90;;;;;;4940228;29;19970;-91
2023/04/07 07:11:12;;;;;;;;;;;6.10;99.90;;;;;;4952463;28;19930;-90
2023/04/07 07:13:39;;;;;;;;;;;6.10;99.90;;;;;;4946858;29;20052;-88
2023/04/07 07:16:06;;;;;;;;;;;6.10;99.90;;;;;;4958414;28;20021;-90
2023/04/07 07:18:33;;;;;;;;;;;6.10;99.90;;;;;;4943360;29;19927;-90
2023/04/07 07:21:00;;;;;;;;;;;6.10;99.90;;;;;;4943531;28;19965;-92
2023/04/07 07:23:28;;;;;;;;;;;6.10;99.90;;;;;;4937331;29;19927;-91
2023/04/07 07:25:55;;;;;;;;;;;6.10;99.90;;;;;;4936307;29;19927;-90
2023/04/07 07:28:22;;;;;;;;;;;6.10;99.90;;;;;;4948805;28;19938;-91
2023/04/07 07:30:49;;;;;;;;;;;6.10;99.90;;;;;;4935349;29;19933;-89
2023/04/07 07:33:16;;;;;;;;;;;6.10;99.90;;;;;;4939680;29;19965;-90
2023/04/07 07:35:43;;;;;;;;;;;6.10;99.90;;;;;;4924254;29;19927;-89
2023/04/07 07:38:10;;;;;;;;;;;6.10;99.90;;;;;;4929278;29;19935;-92
2023/04/07 07:40:39;;;;;;;;;;;6.10;99.90;;;;;;4936975;29;20029;-89
2023/04/07 07:43:06;;;;;;;;;;;6.10;99.90;;;;;;4930756;29;19946;-88
2023/04/07 07:45:32;;;;;;;;;;;6.10;99.90;;;;;;4939345;29;20441;-89
2023/04/07 07:47:59;;;;;;;;;;;6.10;99.90;;;;;;4938888;29;20013;-89
2023/04/07 07:50:26;;;;;;;;;;;6.10;99.90;;;;;;4937521;29;19945;-91
2023/04/07 07:52:53;;;;;;;;;;;6.10;99.90;;;;;;4930829;28;20014;-90
2023/04/07 07:55:20;;;;;;;;;;;6.10;99.90;;;;;;4936647;29;19954;-90
2023/04/07 07:57:48;;;;;;;;;;;6.10;99.90;;;;;;4945056;28;20488;-90
2023/04/07 08:00:15;;;;;;;;;;;6.20;99.90;;;;;;4940292;29;20401;-90
2023/04/07 08:02:42;;;;;;;;;;;6.20;99.90;;;;;;4937500;29;20390;-89
2023/04/07 08:05:09;;;;;;;;;;;6.20;99.90;;;;;;4954049;28;19934;-91
2023/04/07 08:07:36;;;;;;;;;;;6.30;99.90;;;;;;4938884;29;19927;-90
2023/04/07 08:10:03;;;;;;;;;;;6.20;99.90;;;;;;4936709;29;19926;-94
2023/04/07 08:12:30;;;;;;;;;;;6.30;99.90;;;;;;4984304;28;19918;-93
2023/04/07 08:15:01;;;;;;;;;;;6.30;99.90;;;;;;4960963;28;20115;-93
2023/04/07 08:17:28;;;;;;;;;;;6.30;99.90;;;;;;4952004;28;19926;-90
2023/04/07 08:19:55;;;;;;;;;;;6.30;99.90;;;;;;4937818;29;19994;-92
2023/04/07 08:22:21;;;;;;;;;;;6.30;99.90;;;;;;4932382;29;19927;-90
2023/04/07 08:24:51;;;;;;;;;;;6.40;99.90;;;;;;4944258;28;19938;-89
2023/04/07 08:27:19;;;;;;;;;;;6.40;99.90;;;;;;4939857;29;19978;-90
2023/04/07 08:29:46;;;;;;;;;;;6.40;99.90;;;;;;4941405;28;20021;-90
2023/04/07 08:32:15;;;;;;;;;;;6.40;99.90;;;;;;4929401;29;19979;-90
2023/04/07 08:34:41;;;;;;;;;;;6.50;99.90;;;;;;4932885;29;19982;-92
2023/04/07 08:37:08;;;;;;;;;;;6.50;99.90;;;;;;4936678;29;19931;-90
2023/04/07 08:39:35;;;;;;;;;;;6.50;99.90;;;;;;4931560;28;19949;-93
2023/04/07 08:42:02;;;;;;;;;;;6.60;99.90;;;;;;4937184;29;19981;-89
2023/04/07 08:44:29;;;;;;;;;;;6.60;99.90;;;;;;4945339;29;19933;-89
2023/04/07 08:46:57;;;;;;;;;;;6.60;99.90;;;;;;4932050;29;19970;-94
2023/04/07 08:49:28;;;;;;;;;;;6.60;99.90;;;;;;4929937;29;19983;-94
2023/04/07 08:51:57;;;;;;;;;;;6.60;99.90;;;;;;4949759;28;19936;-90
2023/04/07 08:54:24;;;;;;;;;;;6.70;99.90;;;;;;4946712;28;19926;-91
2023/04/07 08:56:51;;;;;;;;;;;6.70;99.90;;;;;;4934723;29;20354;-90
2023/04/07 08:59:21;;;;;;;;;;;6.70;99.90;;;;;;4937241;29;19934;-91
2023/04/07 09:01:49;;;;;;;;;;;6.70;99.90;;;;;;4936847;28;19930;-90
2023/04/07 09:04:16;;;;;;;;;;;6.70;99.90;;;;;;4937545;29;19927;-89
2023/04/07 09:06:45;;;;;;;;;;;6.70;99.90;;;;;;4941757;29;19974;-90
2023/04/07 09:09:12;;;;;;;;;;;6.70;99.90;;;;;;4937355;29;19965;-90
2023/04/07 09:11:39;;;;;;;;;;;6.80;99.90;;;;;;4939593;29;19998;-90
2023/04/07 09:14:07;;;;;;;;;;;6.80;99.90;;;;;;4940659;29;19926;-90
2023/04/07 09:16:33;;;;;;;;;;;6.80;99.90;;;;;;4934038;29;19938;-92
2023/04/07 09:19:00;;;;;;;;;;;6.80;99.90;;;;;;4942184;29;19927;-92
2023/04/07 09:21:46;;;;;;;;;;;6.80;99.90;;;;;;4937220;28;19935;-89
2023/04/07 09:24:21;;;;;;;;;;;6.80;99.90;;;;;;4929434;29;21648;-89
2023/04/07 09:26:48;;;;;;;;;;;6.90;99.90;;;;;;4931025;29;19927;-90
2023/04/07 09:29:18;;;;;;;;;;;6.90;99.90;;;;;;4935884;29;19973;-89
2023/04/07 09:31:46;;;;;;;;;;;6.90;99.90;;;;;;4932142;29;19951;-90
2023/04/07 09:34:23;;;;;;;;;;;6.90;99.90;;;;;;4930274;29;20175;-92
2023/04/07 09:36:50;;;;;;;;;;;6.90;99.90;;;;;;4936379;29;20443;-89
2023/04/07 09:39:18;;;;;;;;;;;7.00;99.90;;;;;;4956384;28;19935;-91
2023/04/07 09:41:46;;;;;;;;;;;7.00;99.90;;;;;;4929437;29;20137;-90
2023/04/07 09:44:13;;;;;;;;;;;7.10;99.90;;;;;;4938071;29;19927;-91
2023/04/07 09:46:48;;;;;;;;;;;7.00;99.90;;;;;;4932158;29;19927;-89
2023/04/07 09:49:15;;;;;;;;;;;7.00;99.90;;;;;;4948490;28;19930;-90
2023/04/07 09:51:52;;;;;;;;;;;7.10;99.90;;;;;;4937552;28;20348;-90
2023/04/07 09:54:31;;;;;;;;;;;7.20;99.90;;;;;;4948233;28;20472;-88
2023/04/07 09:57:01;;;;;;;;;;;7.10;99.90;;;;;;4942785;28;20018;-91
2023/04/07 09:59:28;;;;;;;;;;;7.20;99.90;;;;;;4952604;28;19973;-90
2023/04/07 10:01:55;;;;;;;;;;;7.20;99.90;;;;;;4939739;28;20005;-90
2023/04/07 10:04:22;;;;;;;;;;;7.20;99.90;;;;;;4953431;28;20017;-91
2023/04/07 10:06:49;;;;;;;;;;;7.20;99.90;;;;;;4942479;28;19927;-90
2023/04/07 10:09:17;;;;;;;;;;;7.30;99.90;;;;;;4951684;28;19930;-91
2023/04/07 10:11:44;;;;;;;;;;;7.30;99.90;;;;;;4938079;28;20229;-90
2023/04/07 10:14:13;;;;;;;;;;;7.30;99.90;;;;;;4938562;28;19977;-90
2023/04/07 10:16:42;;;;;;;;;;;7.30;99.90;;;;;;4929673;29;19935;-90
2023/04/07 10:19:09;;;;;;;;;;;7.40;99.90;;;;;;4937645;29;19931;-89
2023/04/07 10:21:39;;;;;;;;;;;7.40;99.90;;;;;;4930382;29;19971;-91
2023/04/07 10:24:18;;;;;;;;;;;7.40;99.90;;;;;;4933410;29;20421;-90
2023/04/07 10:26:47;;;;;;;;;;;7.40;99.90;;;;;;4929671;29;19970;-92
2023/04/07 10:29:16;;;;;;;;;;;7.40;99.90;;;;;;4950050;28;19930;-91
2023/04/07 10:31:44;;;;;;;;;;;7.50;99.90;;;;;;4944777;28;19927;-90
2023/04/07 10:34:11;;;;;;;;;;;7.50;99.90;;;;;;4934525;29;19990;-91
2023/04/07 10:37:02;;;;;;;;;;;7.60;99.90;;;;;;4935765;29;19930;-90
2023/04/07 10:39:30;;;;;;;;;;;7.60;99.90;;;;;;4941709;29;19930;-90
2023/04/07 10:41:57;;;;;;;;;;;7.70;99.90;;;;;;4941190;29;19931;-90
2023/04/07 10:44:51;;;;;;;;;;;7.70;99.90;;;;;;4937609;29;19981;-90
2023/04/07 10:47:18;;;;;;;;;;;7.70;99.90;;;;;;4939807;29;19981;-89
2023/04/07 10:50:04;;;;;;;;;;;7.70;99.90;;;;;;4949393;28;19954;-90
2023/04/07 10:52:31;;;;;;;;;;;7.70;99.90;;;;;;4934553;28;19976;-92
2023/04/07 10:55:16;;;;;;;;;;;7.80;99.90;;;;;;4957427;28;19974;-90
2023/04/07 10:58:12;;;;;;;;;;;7.80;99.90;;;;;;4934228;29;20286;-90
2023/04/07 11:00:41;;;;;;;;;;;7.90;99.90;;;;;;4931729;29;20025;-91
2023/04/07 11:03:11;;;;;;;;;;;7.90;99.90;;;;;;4928865;29;19931;-90
2023/04/07 11:05:38;;;;;;;;;;;7.90;99.90;;;;;;4933314;29;19927;-91
2023/04/07 11:08:05;;;;;;;;;;;7.90;99.90;;;;;;4933574;29;19970;-90
2023/04/07 11:10:32;;;;;;;;;;;7.90;99.90;;;;;;4931258;29;19979;-89
2023/04/07 11:13:00;;;;;;;;;;;7.90;99.90;;;;;;4954272;28;19934;-90
2023/04/07 11:15:27;;;;;;;;;;;8.00;99.90;;;;;;4953620;28;19933;-90
2023/04/07 11:17:54;;;;;;;;;;;;;;;;;;4929045;29;20386;-90
2023/04/07 11:20:22;;;;;;;;;;;8.00;99.90;;;;;;4946748;28;19990;-90
2023/04/07 11:22:59;;;;;;;;;;;8.10;99.90;;;;;;4951176;28;20006;-89
2023/04/07 11:25:27;;;;;;;;;;;8.20;99.90;;;;;;4932059;29;20001;-91
2023/04/07 11:27:54;;;;;;;;;;;8.20;99.90;;;;;;4934640;29;19931;-91
2023/04/07 11:30:21;;;;;;;;;;;8.20;99.90;;;;;;4955687;28;20501;-88
2023/04/07 11:32:49;;;;;;;;;;;8.30;99.90;;;;;;4933796;29;20009;-91
2023/04/07 11:35:16;;;;;;;;;;;8.30;99.90;;;;;;4939470;29;20295;-92
2023/04/07 11:37:44;;;;;;;;;;;8.30;99.90;;;;;;4946158;29;19933;-89
2023/04/07 11:40:15;;;;;;;;;;;8.40;99.90;;;;;;4931519;29;19935;-90
2023/04/07 11:42:45;;;;;;;;;;;8.40;99.90;;;;;;4933415;28;19941;-91
2023/04/07 11:45:16;;;;;;;;;;;8.40;99.90;;;;;;4962567;28;19941;-91
2023/04/07 11:47:43;;;;;;;;;;;8.40;99.90;;;;;;4942186;29;19982;-90
2023/04/07 11:50:10;;;;;;;;;;;8.40;99.90;;;;;;4936914;29;19926;-90
2023/04/07 11:52:40;;;;;;;;;;;8.40;99.90;;;;;;4937051;29;19998;-90
2023/04/07 11:55:16;;;;;;;;;;;8.40;99.90;;;;;;4955305;28;19966;-90
2023/04/07 11:57:43;;;;;;;;;;;8.50;99.90;;;;;;4955108;29;19951;-92
2023/04/07 12:00:11;;;;;;;;;;;8.50;99.90;;;;;;4951877;29;20290;-92
2023/04/07 12:02:38;;;;;;;;;;;8.50;99.90;;;;;;4956869;28;19930;-91
2023/04/07 12:05:05;;;;;;;;;;;8.50;99.90;;;;;;4945389;28;19937;-90
2023/04/07 12:07:32;;;;;;;;;;;8.50;99.90;;;;;;4920040;29;20418;-89
2023/04/07 12:10:17;;;;;;;;;;;8.50;99.90;;;;;;4940753;28;19933;-92
2023/04/07 12:12:46;;;;;;;;;;;8.50;99.90;;;;;;4949535;28;19987;-90
2023/04/07 12:15:13;;;;;;;;;;;8.60;99.90;;;;;;4934011;29;19934;-91
2023/04/07 12:17:44;;;;;;;;;;;8.60;99.90;;;;;;4935069;29;19970;-90
2023/04/07 12:20:11;;;;;;;;;;;8.60;99.90;;;;;;4932118;29;19966;-90
2023/04/07 12:22:38;;;;;;;;;;;8.60;99.90;;;;;;4934251;28;20306;-91
2023/04/07 12:25:05;;;;;;;;;;;8.60;99.90;;;;;;4945945;28;19933;-90
2023/04/07 12:27:32;;;;;;;;;;;8.60;99.90;;;;;;4922167;29;20282;-90
2023/04/07 12:30:01;;;;;;;;;;;8.60;99.90;;;;;;4922271;29;19937;-93
2023/04/07 12:32:27;;;;;;;;;;;8.60;99.90;;;;;;4921663;29;20801;-91
2023/04/07 12:34:54;;;;;;;;;;;8.60;99.90;;;;;;4933350;29;19926;-92
2023/04/07 12:37:21;;;;;;;;;;;8.60;99.90;;;;;;4931929;29;19978;-90
2023/04/07 12:39:48;;;;;;;;;;;8.60;99.90;;;;;;4937541;29;19934;-90
2023/04/07 12:42:15;;;;;;;;;;;8.60;99.90;;;;;;4934387;28;19974;-90
2023/04/07 12:44:42;;;;;;;;;;;8.60;99.90;;;;;;4939896;29;19934;-90
2023/04/07 12:47:11;;;;;;;;;;;8.60;99.90;;;;;;4932815;29;19982;-90
2023/04/07 12:49:37;;;;;;;;;;;8.60;99.90;;;;;;4931077;29;19931;-90
2023/04/07 12:52:05;;;;;;;;;;;8.60;99.90;;;;;;4936670;29;19926;-90
2023/04/07 12:54:32;;;;;;;;;;;8.60;99.90;;;;;;4938977;29;19938;-91
2023/04/07 12:56:59;;;;;;;;;;;8.60;99.90;;;;;;4929341;29;19955;-90
2023/04/07 12:59:26;;;;;;;;;;;8.60;99.90;;;;;;4926071;29;20251;-91
2023/04/07 13:01:53;;;;;;;;;;;8.60;99.90;;;;;;4949807;28;19926;-91
2023/04/07 13:04:23;;;;;;;;;;;8.60;99.90;;;;;;4924145;29;19927;-91
2023/04/07 13:06:50;;;;;;;;;;;8.60;99.90;;;;;;4930012;29;19927;-89
2023/04/07 13:09:16;;;;;;;;;;;8.60;99.90;;;;;;4940437;29;20317;-91
2023/04/07 13:11:44;;;;;;;;;;;8.60;99.90;;;;;;4939540;28;19989;-90
2023/04/07 13:14:11;;;;;;;;;;;8.60;99.90;;;;;;4931146;29;20008;-92
2023/04/07 13:16:38;;;;;;;;;;;8.50;99.90;;;;;;4927699;29;19950;-91
2023/04/07 13:19:04;;;;;;;;;;;8.60;99.90;;;;;;4931977;29;19969;-91
2023/04/07 13:21:33;;;;;;;;;;;8.50;99.90;;;;;;4948409;28;19931;-91
2023/04/07 13:23:59;;;;;;;;;;;8.50;99.90;;;;;;4945453;28;20022;-90
2023/04/07 13:26:27;;;;;;;;;;;8.50;99.90;;;;;;4929646;29;19934;-91
2023/04/07 13:28:53;;;;;;;;;;;8.50;99.90;;;;;;4929966;29;20006;-91
2023/04/07 13:31:22;;;;;;;;;;;8.50;99.90;;;;;;4931818;29;19927;-89
2023/04/07 13:33:49;;;;;;;;;;;8.50;99.90;;;;;;4942223;28;20022;-92
2023/04/07 13:36:16;;;;;;;;;;;8.50;99.90;;;;;;4933846;29;19962;-90
2023/04/07 13:38:44;;;;;;;;;;;8.50;99.90;;;;;;4947693;28;20014;-89
2023/04/07 13:41:11;;;;;;;;;;;8.50;99.90;;;;;;4939548;29;20401;-90
2023/04/07 13:43:38;;;;;;;;;;;8.50;99.90;;;;;;4937053;29;20346;-91
2023/04/07 13:46:05;;;;;;;;;;;8.50;99.90;;;;;;4952778;28;19962;-91
2023/04/07 13:48:32;;;;;;;;;;;8.50;99.90;;;;;;4961777;28;19927;-90
2023/04/07 13:50:59;;;;;;;;;;;8.50;99.90;;;;;;4931989;29;19931;-91
2023/04/07 13:53:26;;;;;;;;;;;8.50;99.90;;;;;;4934714;28;19978;-90
2023/04/07 13:55:54;;;;;;;;;;;8.50;99.90;;;;;;4931137;29;20405;-90
2023/04/07 13:58:21;;;;;;;;;;;8.50;99.90;;;;;;4930353;29;19935;-90
2023/04/07 14:00:48;;;;;;;;;;;8.50;99.90;;;;;;4941399;29;19938;-90
2023/04/07 14:03:15;;;;;;;;;;;8.50;99.90;;;;;;4930720;29;19927;-89
2023/04/07 14:05:42;;;;;;;;;;;8.50;99.90;;;;;;4932157;29;19927;-91
2023/04/07 14:08:08;;;;;;;;;;;8.60;99.90;;;;;;4950097;28;19989;-88
2023/04/07 14:10:35;;;;;;;;;;;8.50;99.90;;;;;;4927661;29;19955;-89
2023/04/07 14:13:03;;;;;;;;;;;8.50;99.90;;;;;;4927281;29;19927;-90
2023/04/07 14:15:31;;;;;;;;;;;8.50;99.90;;;;;;4935577;29;19935;-92
2023/04/07 14:17:59;;;;;;;;;;;8.50;99.90;;;;;;4931289;29;19927;-89
2023/04/07 14:20:26;;;;;;;;;;;8.60;99.90;;;;;;4936471;29;19927;-89
2023/04/07 14:22:53;;;;;;;;;;;8.50;99.90;;;;;;4954770;28;20386;-90
2023/04/07 14:25:21;;;;;;;;;;;8.60;99.90;;;;;;4932220;29;19927;-89
2023/04/07 14:27:47;;;;;;;;;;;8.60;99.90;;;;;;4937579;29;19937;-88
2023/04/07 14:30:16;;;;;;;;;;;8.50;99.90;;;;;;4927238;29;19927;-89
2023/04/07 14:32:42;;;;;;;;;;;8.60;99.90;;;;;;4929862;29;19939;-90
2023/04/07 14:35:09;;;;;;;;;;;8.60;99.90;;;;;;4926473;29;19952;-88
2023/04/07 14:37:38;;;;;;;;;;;8.60;99.90;;;;;;4934175;29;20034;-89
2023/04/07 14:40:06;;;;;;;;;;;8.60;99.90;;;;;;4930082;29;20346;-89